createdAt,value
2019-03-16T00:00:52.212Z,0.7
2019-03-16T00:01:56.848Z,0
2019-03-16T00:02:52.215Z,0.1
2019-03-16T00:03:52.233Z,0.3
2019-03-16T00:04:52.267Z,0.3
2019-03-16T00:05:52.249Z,0.4
2019-03-16T00:06:52.275Z,0.6
2019-03-16T00:07:52.245Z,0.4
2019-03-16T00:08:52.213Z,0.4
2019-03-16T00:09:52.236Z,0.3
2019-03-16T00:10:52.237Z,0.1
2019-03-16T00:11:52.303Z,0.4
2019-03-16T00:12:52.250Z,0.3
2019-03-16T00:13:52.309Z,0.3
2019-03-16T00:14:52.246Z,0.5
2019-03-16T00:15:52.333Z,0.2
2019-03-16T00:16:52.282Z,0.2
2019-03-16T00:17:52.237Z,0.3
2019-03-16T00:18:52.255Z,0.1
2019-03-16T00:19:52.327Z,0.6
2019-03-16T00:20:52.283Z,0.2
2019-03-16T00:21:52.308Z,0.3
2019-03-16T00:22:52.298Z,0.3
2019-03-16T00:23:52.283Z,0.3
2019-03-16T00:24:52.288Z,0
2019-03-16T00:25:52.327Z,0.2
2019-03-16T00:26:52.298Z,0.2
2019-03-16T00:27:52.390Z,0.3
2019-03-16T00:28:52.348Z,0.4
2019-03-16T00:29:52.487Z,0.5
2019-03-16T00:30:52.424Z,0.2
2019-03-16T00:31:52.425Z,0.2
2019-03-16T00:32:52.402Z,0.3
2019-03-16T00:33:52.406Z,0.5
2019-03-16T00:34:52.404Z,0.6
2019-03-16T00:35:52.454Z,0.4
2019-03-16T00:36:52.420Z,0.4
2019-03-16T00:37:52.470Z,0.4
2019-03-16T00:38:52.498Z,0.6
2019-03-16T00:39:52.561Z,0.7
2019-03-16T00:40:52.491Z,0.5
2019-03-16T00:41:52.489Z,0.7
2019-03-16T00:42:52.529Z,0.3
2019-03-16T00:43:52.545Z,0.6
2019-03-16T00:44:52.550Z,0.8
2019-03-16T00:45:52.636Z,0.7
2019-03-16T00:46:52.630Z,0.7
2019-03-16T00:47:52.661Z,0.7
2019-03-16T00:48:52.641Z,0.7
2019-03-16T00:49:52.683Z,0.7
2019-03-16T00:50:52.664Z,0.8
2019-03-16T00:51:52.666Z,0.9
2019-03-16T00:52:52.692Z,1.1
2019-03-16T00:53:52.725Z,1
2019-03-16T00:55:52.782Z,0.8
2019-03-16T00:56:52.763Z,0.9
2019-03-16T00:57:52.793Z,1
2019-03-16T00:58:52.919Z,1
2019-03-16T00:59:52.866Z,1.1
2019-03-16T01:00:52.819Z,1.1
2019-03-16T01:01:52.986Z,1.2
2019-03-16T01:02:52.865Z,1
2019-03-16T01:03:52.875Z,1
2019-03-16T01:04:52.899Z,1.1
2019-03-16T01:05:52.897Z,1.1
2019-03-16T01:06:52.912Z,1.2
2019-03-16T01:07:52.934Z,1.2
2019-03-16T01:08:52.962Z,1.3
2019-03-16T01:09:52.974Z,1
2019-03-16T01:10:53.013Z,1
2019-03-16T01:11:52.978Z,1.1
2019-03-16T01:12:53.005Z,1.1
2019-03-16T01:13:53.005Z,0.9
2019-03-16T01:14:53.078Z,1
2019-03-16T01:15:53.619Z,1
2019-03-16T01:16:53.057Z,1.1
2019-03-16T01:17:53.106Z,1.2
2019-03-16T01:18:53.161Z,1.2
2019-03-16T01:19:53.105Z,1
2019-03-16T01:20:53.143Z,1.3
2019-03-16T01:21:53.151Z,1.2
2019-03-16T01:22:53.211Z,1
2019-03-16T01:23:53.186Z,1.2
2019-03-16T01:24:53.242Z,1.3
2019-03-16T01:25:53.178Z,1.3
2019-03-16T01:26:53.223Z,1.4
2019-03-16T01:27:53.303Z,1.3
2019-03-16T01:28:53.216Z,1.1
2019-03-16T01:29:53.249Z,1.2
2019-03-16T01:30:53.240Z,1.2
2019-03-16T01:31:53.352Z,1.5
2019-03-16T01:32:53.290Z,1.1
2019-03-16T01:33:53.339Z,1.1
2019-03-16T01:34:53.331Z,1.2
2019-03-16T01:35:53.349Z,1.2
2019-03-16T01:36:53.371Z,1.2
2019-03-16T01:37:53.351Z,1.2
2019-03-16T01:38:53.354Z,1
2019-03-16T01:39:53.360Z,1.1
2019-03-16T01:40:53.503Z,1.2
2019-03-16T01:41:53.430Z,1.3
2019-03-16T01:42:53.456Z,1.3
2019-03-16T01:43:53.462Z,1.2
2019-03-16T01:44:53.490Z,1.1
2019-03-16T01:45:53.461Z,1.1
2019-03-16T01:46:53.514Z,1.2
2019-03-16T01:47:53.529Z,1.1
2019-03-16T01:48:53.514Z,1.2
2019-03-16T01:49:53.539Z,1.2
2019-03-16T01:50:53.595Z,1.3
2019-03-16T01:51:53.558Z,1.2
2019-03-16T01:52:53.577Z,1.1
2019-03-16T01:53:53.574Z,1.2
2019-03-16T01:54:53.606Z,1.3
2019-03-16T01:56:01.098Z,1.3
2019-03-16T01:56:53.630Z,1.4
2019-03-16T01:57:53.690Z,1.3
2019-03-16T01:58:53.679Z,1.5
2019-03-16T01:59:53.729Z,1.6
2019-03-16T02:00:53.685Z,1.5
2019-03-16T02:01:53.739Z,1.4
2019-03-16T02:02:55.774Z,1.6
2019-03-16T02:03:53.723Z,1.6
2019-03-16T02:04:53.749Z,1.5
2019-03-16T02:05:53.763Z,1.5
2019-03-16T02:06:53.772Z,1.5
2019-03-16T02:07:53.804Z,1.6
2019-03-16T02:08:53.796Z,1.8
2019-03-16T02:09:53.804Z,1.8
2019-03-16T02:10:53.842Z,1.6
2019-03-16T02:11:53.845Z,1.6
2019-03-16T02:12:53.860Z,1.5
2019-03-16T02:13:53.846Z,1.5
2019-03-16T02:14:53.860Z,1.4
2019-03-16T02:15:53.872Z,1.5
2019-03-16T02:16:53.898Z,1.5
2019-03-16T02:17:53.900Z,1.6
2019-03-16T02:18:53.923Z,1.5
2019-03-16T02:19:53.922Z,1.6
2019-03-16T02:20:53.974Z,1.3
2019-03-16T02:21:53.943Z,1.4
2019-03-16T02:22:53.966Z,1.5
2019-03-16T02:23:54.084Z,1.5
2019-03-16T02:24:54.013Z,1.6
2019-03-16T02:25:54.012Z,1.4
2019-03-16T02:26:54.032Z,1.5
2019-03-16T02:27:54.047Z,1.5
2019-03-16T02:28:54.052Z,1.6
2019-03-16T02:29:54.081Z,1.4
2019-03-16T02:30:54.080Z,1.3
2019-03-16T02:31:54.110Z,1.5
2019-03-16T02:33:10.984Z,1.4
2019-03-16T02:33:54.134Z,1.4
2019-03-16T02:34:54.096Z,1.3
2019-03-16T02:35:54.137Z,1.5
2019-03-16T02:36:54.149Z,1.6
2019-03-16T02:37:54.141Z,1.6
2019-03-16T02:38:54.192Z,1.5
2019-03-16T02:39:54.189Z,1.3
2019-03-16T02:40:54.193Z,1.4
2019-03-16T02:41:54.236Z,1.4
2019-03-16T02:42:54.191Z,1.4
2019-03-16T02:43:54.222Z,1.4
2019-03-16T02:44:54.212Z,1.4
2019-03-16T02:45:54.282Z,1.4
2019-03-16T02:46:54.244Z,1.5
2019-03-16T02:47:54.290Z,1.5
2019-03-16T02:48:54.343Z,1.4
2019-03-16T02:49:54.306Z,1.4
2019-03-16T02:50:54.315Z,1.4
2019-03-16T02:51:54.321Z,1.4
2019-03-16T02:52:54.891Z,1.2
2019-03-16T02:53:54.343Z,1.4
2019-03-16T02:54:54.352Z,1.4
2019-03-16T02:55:54.439Z,1.5
2019-03-16T02:56:54.383Z,1.4
2019-03-16T02:57:54.392Z,1.6
2019-03-16T02:58:54.386Z,1.5
2019-03-16T02:59:54.410Z,1.4
2019-03-16T03:00:54.431Z,1.3
2019-03-16T03:01:54.567Z,1.5
2019-03-16T03:02:54.443Z,1.4
2019-03-16T03:03:54.483Z,1.4
2019-03-16T03:04:54.510Z,1.3
2019-03-16T03:05:54.464Z,1.4
2019-03-16T03:06:54.488Z,1.4
2019-03-16T03:07:54.466Z,1.4
2019-03-16T03:08:54.497Z,1.2
2019-03-16T03:09:54.503Z,1.4
2019-03-16T03:10:54.496Z,1.4
2019-03-16T03:11:54.535Z,1.3
2019-03-16T03:12:54.516Z,1.2
2019-03-16T03:13:54.525Z,1.3
2019-03-16T03:14:54.547Z,1.3
2019-03-16T03:15:54.573Z,1.4
2019-03-16T03:16:54.563Z,1.3
2019-03-16T03:17:54.563Z,1.5
2019-03-16T03:18:54.566Z,1.3
2019-03-16T03:19:54.606Z,1.4
2019-03-16T03:20:54.589Z,1.3
2019-03-16T03:21:54.582Z,1.5
2019-03-16T03:22:54.587Z,1.4
2019-03-16T03:23:54.602Z,1.3
2019-03-16T03:24:54.617Z,1.4
2019-03-16T03:25:54.626Z,1.5
2019-03-16T03:26:54.648Z,1.4
2019-03-16T03:27:54.669Z,1.2
2019-03-16T03:28:54.691Z,1.3
2019-03-16T03:29:57.205Z,1.3
2019-03-16T03:30:54.782Z,1.3
2019-03-16T03:31:54.712Z,1.2
2019-03-16T03:32:54.660Z,1.4
2019-03-16T03:34:01.256Z,1.5
2019-03-16T03:34:54.776Z,1.3
2019-03-16T03:35:54.718Z,1.2
2019-03-16T03:36:54.705Z,1.4
2019-03-16T03:37:54.712Z,1.4
2019-03-16T03:38:54.729Z,1.5
2019-03-16T03:39:54.733Z,1.2
2019-03-16T03:40:54.745Z,1.3
2019-03-16T03:41:54.760Z,1.2
2019-03-16T03:42:54.745Z,1.2
2019-03-16T03:43:54.809Z,1.2
2019-03-16T03:44:55.909Z,1.3
2019-03-16T03:45:54.802Z,1.3
2019-03-16T03:46:54.806Z,1.3
2019-03-16T03:47:54.779Z,1.4
2019-03-16T03:48:54.792Z,1.4
2019-03-16T03:49:54.855Z,1.4
2019-03-16T03:50:54.798Z,1.5
2019-03-16T03:51:54.831Z,1.6
2019-03-16T03:52:54.813Z,1.3
2019-03-16T03:53:54.825Z,1.3
2019-03-16T03:54:54.811Z,1.1
2019-03-16T03:55:54.822Z,1.3
2019-03-16T03:56:54.813Z,1.3
2019-03-16T03:57:54.861Z,1.2
2019-03-16T03:58:54.846Z,1.3
2019-03-16T03:59:54.889Z,1.2
2019-03-16T04:00:54.889Z,1.3
2019-03-16T04:01:54.865Z,1.3
2019-03-16T04:02:54.850Z,1.2
2019-03-16T04:03:54.907Z,1.2
2019-03-16T04:04:54.902Z,1.3
2019-03-16T04:05:54.905Z,1.2
2019-03-16T04:06:54.940Z,1.2
2019-03-16T04:07:54.921Z,1.3
2019-03-16T04:08:54.952Z,1.2
2019-03-16T04:09:54.921Z,1.2
2019-03-16T04:10:54.938Z,1.3
2019-03-16T04:11:54.945Z,1.3
2019-03-16T04:12:54.922Z,1.4
2019-03-16T04:13:54.942Z,1.5
2019-03-16T04:14:54.927Z,1.4
2019-03-16T04:15:54.977Z,1.5
2019-03-16T04:16:55.000Z,1.4
2019-03-16T04:17:55.055Z,1.3
2019-03-16T04:18:54.958Z,1.1
2019-03-16T04:19:54.979Z,1.2
2019-03-16T04:20:54.979Z,1.2
2019-03-16T04:21:55.011Z,1.3
2019-03-16T04:22:54.972Z,1.1
2019-03-16T04:23:54.993Z,1.1
2019-03-16T04:24:55.010Z,1.1
2019-03-16T04:25:54.980Z,1
2019-03-16T04:26:55.007Z,1.1
2019-03-16T04:27:55.011Z,1
2019-03-16T04:28:55.032Z,1.1
2019-03-16T04:29:56.111Z,1.1
2019-03-16T04:30:55.005Z,1.1
2019-03-16T04:31:55.061Z,1.1
2019-03-16T04:32:55.037Z,1
2019-03-16T04:33:55.032Z,1
2019-03-16T04:34:55.032Z,1.1
2019-03-16T04:35:55.048Z,1.1
2019-03-16T04:36:55.084Z,1
2019-03-16T04:37:55.066Z,1.1
2019-03-16T04:38:55.061Z,1.2
2019-03-16T04:39:55.130Z,1.2
2019-03-16T04:40:55.057Z,1.1
2019-03-16T04:41:55.107Z,1
2019-03-16T04:42:55.105Z,1.1
2019-03-16T04:43:55.092Z,1.1
2019-03-16T04:44:55.248Z,1.2
2019-03-16T04:45:55.095Z,1.2
2019-03-16T04:46:55.080Z,1.2
2019-03-16T04:47:55.101Z,1.2
2019-03-16T04:48:55.105Z,1.3
2019-03-16T04:49:55.085Z,1
2019-03-16T04:50:55.203Z,1.1
2019-03-16T04:51:55.093Z,1
2019-03-16T04:52:55.144Z,1.1
2019-03-16T04:53:55.135Z,1.1
2019-03-16T04:54:55.180Z,1
2019-03-16T04:55:55.142Z,0.9
2019-03-16T04:56:55.129Z,0.9
2019-03-16T04:57:55.125Z,1.1
2019-03-16T04:58:55.231Z,1.1
2019-03-16T04:59:55.146Z,1.1
2019-03-16T05:00:55.143Z,1.1
2019-03-16T05:01:55.152Z,1.1
2019-03-16T05:02:55.160Z,1.3
2019-03-16T05:03:55.174Z,1.4
2019-03-16T05:04:55.124Z,1.2
2019-03-16T05:05:55.168Z,1.2
2019-03-16T05:06:55.211Z,1.1
2019-03-16T05:07:55.167Z,1.1
2019-03-16T05:08:55.190Z,1.2
2019-03-16T05:09:55.164Z,1.3
2019-03-16T05:10:55.161Z,1.3
2019-03-16T05:11:55.199Z,1.4
2019-03-16T05:12:55.226Z,1.2
2019-03-16T05:13:55.235Z,1.4
2019-03-16T05:14:55.183Z,1.4
2019-03-16T05:15:55.206Z,1.3
2019-03-16T05:16:55.302Z,1.3
2019-03-16T05:17:55.198Z,1.5
2019-03-16T05:18:55.241Z,1.3
2019-03-16T05:19:55.249Z,1.3
2019-03-16T05:20:55.212Z,1.4
2019-03-16T05:21:55.226Z,1.4
2019-03-16T05:22:55.257Z,1.4
2019-03-16T05:23:55.276Z,1.4
2019-03-16T05:24:55.252Z,1.4
2019-03-16T05:25:55.294Z,1.4
2019-03-16T05:26:55.264Z,1.3
2019-03-16T05:27:55.261Z,1.5
2019-03-16T05:28:55.253Z,1.4
2019-03-16T05:29:56.319Z,1.4
2019-03-16T05:30:55.256Z,1.3
2019-03-16T05:31:55.350Z,1.2
2019-03-16T05:32:55.275Z,1.4
2019-03-16T05:33:55.313Z,1.4
2019-03-16T05:34:56.595Z,1.4
2019-03-16T05:35:55.285Z,1.5
2019-03-16T05:36:56.132Z,1.3
2019-03-16T05:37:55.307Z,1.4
2019-03-16T05:38:55.331Z,1.5
2019-03-16T05:39:55.341Z,1.5
2019-03-16T05:40:55.347Z,1.7
2019-03-16T05:41:55.357Z,1.6
2019-03-16T05:42:55.337Z,1.6
2019-03-16T05:43:55.360Z,1.7
2019-03-16T05:44:55.328Z,1.6
2019-03-16T05:45:55.312Z,1.7
2019-03-16T05:46:55.365Z,1.6
2019-03-16T05:47:55.314Z,1.6
2019-03-16T05:48:55.355Z,1.6
2019-03-16T05:49:55.320Z,1.6
2019-03-16T05:50:57.426Z,1.4
2019-03-16T05:51:55.355Z,1.4
2019-03-16T05:52:55.354Z,1.4
2019-03-16T05:53:55.370Z,1.5
2019-03-16T05:54:55.398Z,1.6
2019-03-16T05:55:55.372Z,1.7
2019-03-16T05:56:55.395Z,1.6
2019-03-16T05:57:55.384Z,1.5
2019-03-16T05:58:55.380Z,1.5
2019-03-16T05:59:55.510Z,1.5
2019-03-16T06:00:55.413Z,1.4
2019-03-16T06:01:55.496Z,1.4
2019-03-16T06:02:55.440Z,1.4
2019-03-16T06:03:55.435Z,1.6
2019-03-16T06:04:55.489Z,1.6
2019-03-16T06:05:55.429Z,1.4
2019-03-16T06:06:55.440Z,1.4
2019-03-16T06:07:55.444Z,1.3
2019-03-16T06:08:55.469Z,1.4
2019-03-16T06:09:55.455Z,1.4
2019-03-16T06:10:55.452Z,1.6
2019-03-16T06:11:55.500Z,1.6
2019-03-16T06:12:55.471Z,1.5
2019-03-16T06:13:55.471Z,1.5
2019-03-16T06:14:55.501Z,1.4
2019-03-16T06:15:55.525Z,1.5
2019-03-16T06:16:55.478Z,1.5
2019-03-16T06:17:55.569Z,1.7
2019-03-16T06:18:55.469Z,1.6
2019-03-16T06:19:55.473Z,1.6
2019-03-16T06:20:55.499Z,1.6
2019-03-16T06:21:55.507Z,1.5
2019-03-16T06:22:55.499Z,1.4
2019-03-16T06:23:55.544Z,1.5
2019-03-16T06:24:55.502Z,1.6
2019-03-16T06:25:55.488Z,1.6
2019-03-16T06:26:55.501Z,1.6
2019-03-16T06:27:55.559Z,1.5
2019-03-16T06:28:56.575Z,1.5
2019-03-16T06:29:55.623Z,1.5
2019-03-16T06:30:55.544Z,1.4
2019-03-16T06:31:55.591Z,1.6
2019-03-16T06:32:55.560Z,1.5
2019-03-16T06:33:55.538Z,1.4
2019-03-16T06:34:55.572Z,1.3
2019-03-16T06:35:55.555Z,1.1
2019-03-16T06:36:55.556Z,1.1
2019-03-16T06:37:55.556Z,1.3
2019-03-16T06:38:55.580Z,1.4
2019-03-16T06:39:55.547Z,1.6
2019-03-16T06:40:55.613Z,1.4
2019-03-16T06:41:55.551Z,1.4
2019-03-16T06:42:55.622Z,1.6
2019-03-16T06:43:55.566Z,1.4
2019-03-16T06:44:55.617Z,1.4
2019-03-16T06:45:55.606Z,1.3
2019-03-16T06:46:55.607Z,1.3
2019-03-16T06:47:55.617Z,1.3
2019-03-16T06:48:55.614Z,1.3
2019-03-16T06:49:55.694Z,1.3
2019-03-16T06:50:55.593Z,1.4
2019-03-16T06:51:55.619Z,1.2
2019-03-16T06:52:55.675Z,1.2
2019-03-16T06:53:57.905Z,1.1
2019-03-16T06:54:55.618Z,1.4
2019-03-16T06:55:55.633Z,1.6
2019-03-16T06:56:55.641Z,1.4
2019-03-16T06:57:55.641Z,1.4
2019-03-16T06:58:58.289Z,1.5
2019-03-16T06:59:55.633Z,1.4
2019-03-16T07:00:55.650Z,1
2019-03-16T07:01:55.660Z,1
2019-03-16T07:02:55.678Z,1.1
2019-03-16T07:03:55.681Z,1.2
2019-03-16T07:04:55.680Z,1.2
2019-03-16T07:05:55.697Z,1
2019-03-16T07:06:55.695Z,1.2
2019-03-16T07:07:56.773Z,1.2
2019-03-16T07:08:55.711Z,1
2019-03-16T07:09:55.731Z,1.3
2019-03-16T07:10:55.730Z,1
2019-03-16T07:11:55.716Z,0.9
2019-03-16T07:12:55.690Z,1
2019-03-16T07:13:55.724Z,0.9
2019-03-16T07:14:55.693Z,0.9
2019-03-16T07:15:55.818Z,1
2019-03-16T07:17:01.725Z,1.2
2019-03-16T07:17:55.751Z,1.2
2019-03-16T07:18:58.892Z,1.2
2019-03-16T07:19:55.722Z,1.2
2019-03-16T07:20:55.764Z,1.3
2019-03-16T07:21:55.749Z,0.9
2019-03-16T07:22:55.754Z,0.9
2019-03-16T07:23:55.814Z,1.2
2019-03-16T07:24:55.877Z,1.1
2019-03-16T07:25:55.891Z,1
2019-03-16T07:26:55.802Z,0.9
2019-03-16T07:27:55.799Z,0.9
2019-03-16T07:28:55.852Z,1
2019-03-16T07:29:55.827Z,1
2019-03-16T07:30:55.832Z,1.3
2019-03-16T07:31:55.877Z,1.1
2019-03-16T07:32:58.057Z,1.1
2019-03-16T07:33:55.853Z,1.1
2019-03-16T07:34:55.850Z,1.1
2019-03-16T07:35:55.820Z,1.3
2019-03-16T07:36:55.856Z,0.8
2019-03-16T07:37:55.851Z,0.8
2019-03-16T07:38:55.857Z,1
2019-03-16T07:39:55.968Z,0.9
2019-03-16T07:40:56.406Z,1.1
2019-03-16T07:41:55.919Z,1
2019-03-16T07:42:55.893Z,0.9
2019-03-16T07:43:55.936Z,0.9
2019-03-16T07:45:07.441Z,0.8
2019-03-16T07:45:55.881Z,0.8
2019-03-16T07:46:55.959Z,1
2019-03-16T07:47:55.909Z,0.8
2019-03-16T07:48:55.946Z,0.7
2019-03-16T07:49:55.992Z,0.7
2019-03-16T07:50:55.946Z,0.8
2019-03-16T07:51:55.940Z,0.8
2019-03-16T07:52:55.956Z,0.7
2019-03-16T07:53:56.070Z,0.6
2019-03-16T07:54:55.980Z,0.9
2019-03-16T07:55:55.966Z,0.6
2019-03-16T07:56:56.003Z,0.6
2019-03-16T07:57:56.018Z,0.2
2019-03-16T07:58:55.984Z,0.2
2019-03-16T07:59:56.008Z,0.3
2019-03-16T08:00:56.018Z,0.5
2019-03-16T08:01:56.071Z,0.5
2019-03-16T08:02:56.033Z,0.4
2019-03-16T08:03:56.069Z,0.7
2019-03-16T08:04:56.032Z,0.8
2019-03-16T08:05:56.100Z,0.9
2019-03-16T08:06:56.142Z,1
2019-03-16T08:07:56.035Z,1.1
2019-03-16T08:08:56.061Z,1.3
2019-03-16T08:09:56.083Z,1.2
2019-03-16T08:10:56.122Z,1.3
2019-03-16T08:11:56.085Z,1.3
2019-03-16T08:12:56.087Z,1.2
2019-03-16T08:13:56.127Z,1.1
2019-03-16T08:14:56.078Z,1.3
2019-03-16T08:15:56.127Z,1.4
2019-03-16T08:16:56.348Z,0.9
2019-03-16T08:17:56.174Z,1
2019-03-16T08:18:56.086Z,1.1
2019-03-16T08:19:56.152Z,1
2019-03-16T08:20:56.128Z,1.3
2019-03-16T08:21:56.170Z,1.7
2019-03-16T08:22:56.164Z,1.4
2019-03-16T08:23:56.165Z,1.3
2019-03-16T08:24:56.178Z,1.1
2019-03-16T08:25:56.152Z,1.5
2019-03-16T08:26:56.199Z,1.1
2019-03-16T08:27:56.169Z,1.4
2019-03-16T08:28:58.926Z,1.4
2019-03-16T08:29:56.155Z,1.6
2019-03-16T08:30:56.873Z,1.5
2019-03-16T08:31:56.203Z,1.3
2019-03-16T08:32:56.182Z,1.3
2019-03-16T08:33:56.191Z,1.4
2019-03-16T08:34:56.230Z,1.4
2019-03-16T08:35:56.280Z,1.5
2019-03-16T08:36:56.214Z,1.7
2019-03-16T08:37:56.278Z,1.9
2019-03-16T08:38:56.208Z,2.1
2019-03-16T08:39:56.238Z,2.3
2019-03-16T08:40:56.231Z,2.4
2019-03-16T08:41:56.325Z,2.4
2019-03-16T08:42:56.258Z,2.2
2019-03-16T08:43:56.283Z,2.2
2019-03-16T08:44:58.921Z,2
2019-03-16T08:45:56.270Z,2.4
2019-03-16T08:46:56.281Z,2.7
2019-03-16T08:48:28.504Z,2.8
2019-03-16T08:48:56.262Z,2.8
2019-03-16T08:49:56.292Z,2.6
2019-03-16T08:50:56.297Z,2.8
2019-03-16T08:51:56.283Z,3.3
2019-03-16T08:52:56.277Z,3.5
2019-03-16T08:53:58.568Z,3.3
2019-03-16T08:54:56.266Z,3.2
2019-03-16T08:55:56.287Z,3.5
2019-03-16T08:56:56.306Z,3.6
2019-03-16T08:58:05.516Z,3.2
2019-03-16T08:58:56.364Z,3
2019-03-16T08:59:56.357Z,3.2
2019-03-16T09:00:56.358Z,3.4
2019-03-16T09:01:56.303Z,3.3
2019-03-16T09:02:56.313Z,3.6
2019-03-16T09:03:56.371Z,3.5
2019-03-16T09:04:56.330Z,3.7
2019-03-16T09:05:56.335Z,3.7
2019-03-16T09:06:56.346Z,3.9
2019-03-16T09:07:56.348Z,4
2019-03-16T09:08:56.373Z,3.4
2019-03-16T09:09:56.381Z,3.7
2019-03-16T09:10:56.416Z,3.7
2019-03-16T09:11:58.209Z,3.6
2019-03-16T09:12:56.395Z,3.5
2019-03-16T09:13:56.397Z,3.8
2019-03-16T09:14:56.439Z,4
2019-03-16T09:15:56.406Z,3.7
2019-03-16T09:16:56.475Z,3.8
2019-03-16T09:17:56.399Z,3.9
2019-03-16T09:18:56.442Z,4
2019-03-16T09:19:56.456Z,4
2019-03-16T09:20:56.484Z,3.8
2019-03-16T09:21:56.463Z,3.8
2019-03-16T09:22:56.496Z,4
2019-03-16T09:23:56.525Z,3.9
2019-03-16T09:24:56.479Z,3.9
2019-03-16T09:25:56.493Z,4
2019-03-16T09:26:58.780Z,3.7
2019-03-16T09:27:56.519Z,3.9
2019-03-16T09:29:00.149Z,4
2019-03-16T09:29:56.549Z,4.1
2019-03-16T09:30:56.691Z,4.1
2019-03-16T09:31:56.595Z,4.3
2019-03-16T09:32:56.540Z,4.1
2019-03-16T09:33:56.557Z,4.2
2019-03-16T09:34:56.537Z,4.3
2019-03-16T09:35:56.531Z,4.2
2019-03-16T09:36:56.546Z,4.4
2019-03-16T09:37:56.554Z,4.4
2019-03-16T09:38:56.602Z,4.3
2019-03-16T09:39:56.614Z,4.4
2019-03-16T09:40:56.582Z,4.5
2019-03-16T09:41:56.599Z,4.5
2019-03-16T09:42:56.598Z,4.5
2019-03-16T09:43:56.590Z,4.5
2019-03-16T09:44:56.604Z,4.5
2019-03-16T09:45:56.615Z,4.4
2019-03-16T09:46:56.597Z,4.4
2019-03-16T09:47:56.609Z,4.5
2019-03-16T09:48:56.914Z,4.6
2019-03-16T09:49:56.844Z,4.5
2019-03-16T09:50:56.691Z,4.3
2019-03-16T09:51:56.617Z,4.4
2019-03-16T09:52:56.629Z,4.4
2019-03-16T09:53:56.648Z,4.4
2019-03-16T09:54:56.664Z,4.4
2019-03-16T09:55:56.650Z,4.4
2019-03-16T09:57:01.361Z,4.5
2019-03-16T09:57:56.669Z,4.5
2019-03-16T09:58:56.654Z,4.7
2019-03-16T09:59:56.666Z,4.7
2019-03-16T10:00:58.958Z,4.6
2019-03-16T10:01:56.686Z,4.5
2019-03-16T10:02:56.674Z,4.3
2019-03-16T10:03:56.684Z,4.4
2019-03-16T10:04:57.784Z,4.4
2019-03-16T10:05:56.719Z,4.6
2019-03-16T10:06:56.719Z,4.8
2019-03-16T10:07:56.699Z,4.9
2019-03-16T10:08:56.692Z,4.9
2019-03-16T10:09:56.729Z,4.9
2019-03-16T10:10:56.768Z,4.7
2019-03-16T10:11:56.805Z,4.6
2019-03-16T10:12:56.768Z,4.6
2019-03-16T10:13:56.770Z,4.6
2019-03-16T10:14:56.804Z,4.5
2019-03-16T10:15:56.787Z,4.6
2019-03-16T10:16:56.854Z,4.8
2019-03-16T10:17:56.819Z,5
2019-03-16T10:18:56.878Z,4.8
2019-03-16T10:19:56.863Z,4.7
2019-03-16T10:20:56.852Z,4.6
2019-03-16T10:21:56.858Z,4.6
2019-03-16T10:22:56.888Z,4.6
2019-03-16T10:23:56.904Z,4.3
2019-03-16T10:24:56.901Z,4.3
2019-03-16T10:25:56.901Z,4.2
2019-03-16T10:26:56.936Z,4.3
2019-03-16T10:27:56.986Z,4.4
2019-03-16T10:28:56.994Z,4.5
2019-03-16T10:29:56.996Z,4.4
2019-03-16T10:30:57.048Z,4.4
2019-03-16T10:31:57.076Z,4.5
2019-03-16T10:32:57.054Z,4.5
2019-03-16T10:33:57.079Z,4.7
2019-03-16T10:34:57.182Z,4.8
2019-03-16T10:35:57.106Z,4.7
2019-03-16T10:36:57.144Z,4.8
2019-03-16T10:37:57.153Z,4.8
2019-03-16T10:38:57.145Z,4.4
2019-03-16T10:39:57.191Z,4.4
2019-03-16T10:40:57.173Z,4.4
2019-03-16T10:41:57.209Z,4.5
2019-03-16T10:42:57.233Z,4.5
2019-03-16T10:43:57.251Z,4.6
2019-03-16T10:44:57.239Z,4.8
2019-03-16T10:45:57.267Z,4.9
2019-03-16T10:46:57.316Z,5
2019-03-16T10:47:57.323Z,5
2019-03-16T10:48:57.343Z,4.9
2019-03-16T10:49:57.358Z,4.8
2019-03-16T10:50:57.353Z,4.7
2019-03-16T10:51:57.403Z,4.8
2019-03-16T10:52:57.395Z,4.7
2019-03-16T10:53:57.849Z,4.5
2019-03-16T10:54:57.431Z,4.5
2019-03-16T10:55:57.457Z,4.5
2019-03-16T10:56:57.446Z,4.5
2019-03-16T10:57:57.452Z,4.5
2019-03-16T10:58:57.491Z,4.5
2019-03-16T10:59:57.493Z,4.5
2019-03-16T11:00:57.534Z,4.5
2019-03-16T11:01:57.653Z,4.4
2019-03-16T11:02:57.703Z,4.4
2019-03-16T11:03:57.548Z,4.4
2019-03-16T11:04:57.590Z,4.7
2019-03-16T11:05:57.596Z,5
2019-03-16T11:06:57.605Z,5
2019-03-16T11:07:57.625Z,5
2019-03-16T11:08:57.630Z,5
2019-03-16T11:09:57.673Z,5
2019-03-16T11:10:57.657Z,5
2019-03-16T11:11:57.674Z,4.9
2019-03-16T11:12:57.706Z,4.8
2019-03-16T11:13:57.698Z,4.8
2019-03-16T11:14:57.772Z,4.5
2019-03-16T11:15:57.726Z,4.5
2019-03-16T11:16:57.788Z,4.4
2019-03-16T11:17:58.336Z,4.4
2019-03-16T11:18:57.834Z,4.6
2019-03-16T11:19:57.827Z,4.7
2019-03-16T11:20:57.813Z,4.9
2019-03-16T11:21:57.831Z,5
2019-03-16T11:22:57.847Z,5
2019-03-16T11:23:57.866Z,4.8
2019-03-16T11:24:57.857Z,4.7
2019-03-16T11:25:57.885Z,4.4
2019-03-16T11:27:00.160Z,4.3
2019-03-16T11:27:57.948Z,4.2
2019-03-16T11:29:08.362Z,4.2
2019-03-16T11:29:57.927Z,4.5
2019-03-16T11:30:57.933Z,4.6
2019-03-16T11:31:58.271Z,4.5
2019-03-16T11:32:57.967Z,4.7
2019-03-16T11:33:57.986Z,4.6
2019-03-16T11:34:58.068Z,4.5
2019-03-16T11:35:57.992Z,4.8
2019-03-16T11:36:58.040Z,4.8
2019-03-16T11:37:58.123Z,4.5
2019-03-16T11:38:58.125Z,4.4
2019-03-16T11:39:58.052Z,4.7
2019-03-16T11:40:58.069Z,5
2019-03-16T11:41:58.126Z,5
2019-03-16T11:42:58.140Z,4.7
2019-03-16T11:43:58.121Z,4.9
2019-03-16T11:44:58.152Z,5.2
2019-03-16T11:45:58.163Z,5.3
2019-03-16T11:46:58.236Z,5.3
2019-03-16T11:47:58.180Z,5.3
2019-03-16T11:48:58.185Z,5.4
2019-03-16T11:49:58.194Z,5.4
2019-03-16T11:50:58.244Z,5.7
2019-03-16T11:51:58.261Z,5.8
2019-03-16T11:52:58.259Z,5.4
2019-03-16T11:53:58.267Z,5.3
2019-03-16T11:54:58.262Z,5.5
2019-03-16T11:55:58.268Z,5.6
2019-03-16T11:56:58.305Z,5.6
2019-03-16T11:57:58.308Z,5.3
2019-03-16T11:58:58.325Z,5
2019-03-16T11:59:58.309Z,4.7
2019-03-16T12:00:58.405Z,4.6
2019-03-16T12:02:05.041Z,4.8
2019-03-16T12:02:58.375Z,4.7
2019-03-16T12:03:58.392Z,4.3
2019-03-16T12:04:58.387Z,4.6
2019-03-16T12:05:58.406Z,5
2019-03-16T12:06:58.430Z,5.4
2019-03-16T12:07:58.410Z,5.7
2019-03-16T12:08:58.476Z,6
2019-03-16T12:09:58.494Z,6.1
2019-03-16T12:10:58.467Z,6.3
2019-03-16T12:11:58.539Z,6.2
2019-03-16T12:12:58.733Z,5.9
2019-03-16T12:13:58.609Z,6.1
2019-03-16T12:14:58.559Z,6.1
2019-03-16T12:15:58.513Z,5.9
2019-03-16T12:16:58.530Z,6.9
2019-03-16T12:17:58.601Z,5.2
2019-03-16T12:18:58.615Z,5.3
2019-03-16T12:19:58.590Z,5.7
2019-03-16T12:20:58.611Z,6.1
2019-03-16T12:21:58.721Z,6.1
2019-03-16T12:22:58.822Z,6.2
2019-03-16T12:23:58.687Z,6.5
2019-03-16T12:24:58.600Z,6.6
2019-03-16T12:25:58.683Z,6.6
2019-03-16T12:26:58.764Z,6.4
2019-03-16T12:27:58.895Z,6.5
2019-03-16T12:28:58.756Z,6.7
2019-03-16T12:29:58.793Z,6.4
2019-03-16T12:30:58.752Z,6.2
2019-03-16T12:31:58.834Z,6.1
2019-03-16T12:32:58.935Z,6.2
2019-03-16T12:33:58.748Z,6.1
2019-03-16T12:34:58.862Z,6.1
2019-03-16T12:35:58.803Z,6.2
2019-03-16T12:36:58.814Z,6.1
2019-03-16T12:37:59.010Z,5.8
2019-03-16T12:38:58.878Z,6
2019-03-16T12:39:58.897Z,6.2
2019-03-16T12:40:58.882Z,6.1
2019-03-16T12:41:58.858Z,6.1
2019-03-16T12:42:58.937Z,6.1
2019-03-16T12:43:58.897Z,6.1
2019-03-16T12:44:58.925Z,6.2
2019-03-16T12:45:58.921Z,6.3
2019-03-16T12:46:58.953Z,6.1
2019-03-16T12:47:58.969Z,6.2
2019-03-16T12:48:58.977Z,6.3
2019-03-16T12:49:58.956Z,6.4
2019-03-16T12:50:58.996Z,6.4
2019-03-16T12:51:59.012Z,6.3
2019-03-16T12:52:59.050Z,6.3
2019-03-16T12:53:59.017Z,6.4
2019-03-16T12:54:59.015Z,6.4
2019-03-16T12:55:59.095Z,6.3
2019-03-16T12:56:59.015Z,6.2
2019-03-16T12:57:59.142Z,6.3
2019-03-16T12:59:09.745Z,6.4
2019-03-16T12:59:59.085Z,6.5
2019-03-16T13:00:59.037Z,6.7
2019-03-16T13:01:59.098Z,6.8
2019-03-16T13:02:59.086Z,6.8
2019-03-16T13:03:59.158Z,6.9
2019-03-16T13:04:59.123Z,6.9
2019-03-16T13:05:59.097Z,6.9
2019-03-16T13:06:59.140Z,7
2019-03-16T13:07:59.115Z,7.2
2019-03-16T13:08:59.150Z,7.1
2019-03-16T13:09:59.111Z,7.2
2019-03-16T13:10:59.185Z,7.3
2019-03-16T13:11:59.203Z,7.4
2019-03-16T13:12:59.183Z,7.4
2019-03-16T13:13:59.192Z,7.5
2019-03-16T13:14:59.207Z,7.7
2019-03-16T13:15:59.312Z,7.8
2019-03-16T13:16:59.203Z,7.8
2019-03-16T13:17:59.232Z,7.9
2019-03-16T13:18:59.205Z,8
2019-03-16T13:19:59.210Z,8.2
2019-03-16T13:20:59.256Z,8.2
2019-03-16T13:21:59.296Z,8.1
2019-03-16T13:22:59.309Z,8
2019-03-16T13:23:59.317Z,8.1
2019-03-16T13:24:59.302Z,8.1
2019-03-16T13:25:59.306Z,8.2
2019-03-16T13:26:59.308Z,8.3
2019-03-16T13:27:59.295Z,8.5
2019-03-16T13:28:59.336Z,8.4
2019-03-16T13:29:59.460Z,8.5
2019-03-16T13:30:59.318Z,8.6
2019-03-16T13:31:59.524Z,8.8
2019-03-16T13:32:59.462Z,8.8
2019-03-16T13:33:59.341Z,8.8
2019-03-16T13:34:59.345Z,8.9
2019-03-16T13:35:59.418Z,8.9
2019-03-16T13:36:59.410Z,9
2019-03-16T13:37:59.396Z,9.1
2019-03-16T13:38:59.500Z,9.1
2019-03-16T13:39:59.416Z,8.8
2019-03-16T13:40:59.453Z,8.6
2019-03-16T13:41:59.433Z,8.6
2019-03-16T13:42:59.437Z,8.6
2019-03-16T13:43:59.438Z,8.6
2019-03-16T13:44:59.541Z,8.7
2019-03-16T13:45:59.442Z,8.8
2019-03-16T13:46:59.459Z,8.7
2019-03-16T13:47:59.513Z,8.7
2019-03-16T13:48:59.499Z,8.8
2019-03-16T13:49:59.490Z,8.8
2019-03-16T13:50:59.511Z,8.8
2019-03-16T13:51:59.515Z,8.8